createdAt,value
2018-12-26T00:02:27.327Z,2.20
2018-12-26T00:04:58.160Z,2.17
2018-12-26T00:07:28.825Z,2.30
2018-12-26T00:10:01.740Z,2.97
2018-12-26T00:12:35.169Z,1.80
2018-12-26T00:15:05.921Z,2.10
2018-12-26T00:17:36.664Z,1.60
2018-12-26T00:20:07.548Z,2.07
2018-12-26T00:22:38.628Z,1.67
2018-12-26T00:25:09.889Z,2.30
2018-12-26T00:27:42.785Z,2.17
2018-12-26T00:30:13.693Z,2.70
2018-12-26T00:32:44.738Z,1.90
2018-12-26T00:35:15.999Z,2.23
2018-12-26T00:37:46.879Z,1.87
2018-12-26T00:40:19.788Z,2.40
2018-12-26T00:42:50.612Z,2.23
2018-12-26T00:45:21.436Z,2.00
2018-12-26T00:47:52.339Z,2.20
2018-12-26T00:50:23.059Z,2.47
2018-12-26T00:52:54.341Z,2.43
2018-12-26T00:55:26.115Z,2.30
2018-12-26T00:57:58.566Z,2.43
2018-12-26T01:00:29.424Z,2.17
2018-12-26T01:03:00.719Z,2.43
2018-12-26T01:05:31.547Z,2.20
2018-12-26T01:08:02.409Z,2.23
2018-12-26T01:10:33.269Z,2.67
2018-12-26T01:13:04.443Z,2.50
2018-12-26T01:15:35.278Z,1.80
2018-12-26T01:18:06.861Z,2.20
2018-12-26T01:20:37.585Z,2.60
2018-12-26T01:23:08.296Z,2.30
2018-12-26T01:25:39.113Z,2.00
2018-12-26T01:28:10.212Z,2.23
2018-12-26T01:30:42.018Z,2.00
2018-12-26T01:33:12.841Z,2.07
2018-12-26T01:35:43.883Z,2.20
2018-12-26T01:38:14.688Z,2.70
2018-12-26T01:40:45.594Z,2.20
2018-12-26T01:43:16.656Z,2.37
2018-12-26T01:45:47.718Z,1.90
2018-12-26T01:48:18.566Z,2.10
2018-12-26T01:50:49.391Z,1.90
2018-12-26T01:53:20.162Z,2.57
2018-12-26T01:55:50.939Z,2.50
2018-12-26T01:58:21.759Z,2.30
2018-12-26T02:00:52.610Z,2.27
2018-12-26T02:03:23.417Z,2.83
2018-12-26T02:05:54.284Z,2.83
2018-12-26T02:08:25.302Z,1.90
2018-12-26T02:10:56.194Z,3.00
2018-12-26T02:13:27.070Z,2.67
2018-12-26T02:15:57.984Z,2.57
2018-12-26T02:18:28.811Z,2.10
2018-12-26T02:21:00.301Z,2.30
2018-12-26T02:23:30.965Z,2.27
2018-12-26T02:26:02.124Z,2.40
2018-12-26T02:28:32.777Z,2.50
2018-12-26T02:31:05.023Z,2.37
2018-12-26T02:33:35.651Z,2.30
2018-12-26T02:36:06.451Z,2.27
2018-12-26T02:38:37.202Z,2.47
2018-12-26T02:41:08.224Z,2.47
2018-12-26T02:43:39.147Z,2.50
2018-12-26T02:46:10.274Z,2.63
2018-12-26T02:48:42.126Z,2.83
2018-12-26T02:51:12.850Z,2.70
2018-12-26T02:53:43.780Z,2.43
2018-12-26T02:56:14.454Z,3.03
2018-12-26T02:58:45.139Z,3.00
2018-12-26T03:01:16.332Z,2.73
2018-12-26T03:03:47.001Z,2.37
2018-12-26T03:06:17.729Z,2.57
2018-12-26T03:08:48.421Z,3.00
2018-12-26T03:11:19.137Z,2.10
2018-12-26T03:13:49.886Z,2.63
2018-12-26T03:16:20.529Z,2.53
2018-12-26T03:18:51.182Z,3.10
2018-12-26T03:21:21.804Z,3.20
2018-12-26T03:23:52.500Z,3.33
2018-12-26T03:26:24.246Z,2.70
2018-12-26T03:28:54.916Z,3.20
2018-12-26T03:31:25.563Z,2.93
2018-12-26T03:33:56.270Z,2.60
2018-12-26T03:36:27.185Z,2.23
2018-12-26T03:38:57.884Z,3.03
2018-12-26T03:41:29.372Z,2.83
2018-12-26T03:44:00.017Z,2.53
2018-12-26T03:46:30.978Z,2.77
2018-12-26T03:49:01.855Z,2.40
2018-12-26T03:51:32.511Z,2.13
2018-12-26T03:54:03.214Z,3.10
2018-12-26T03:56:33.910Z,2.77
2018-12-26T03:59:04.771Z,2.57
2018-12-26T04:01:36.389Z,2.90
2018-12-26T04:04:08.706Z,3.00
2018-12-26T04:06:40.062Z,2.60
2018-12-26T04:09:11.058Z,2.37
2018-12-26T04:11:41.852Z,2.00
2018-12-26T04:14:12.564Z,3.07
2018-12-26T04:16:43.334Z,2.53
2018-12-26T04:19:14.314Z,2.50
2018-12-26T04:21:45.761Z,2.80
2018-12-26T04:24:16.781Z,2.93
2018-12-26T04:26:47.462Z,2.67
2018-12-26T04:29:18.175Z,3.57
2018-12-26T04:31:48.837Z,3.10
2018-12-26T04:34:19.548Z,2.53
2018-12-26T04:36:50.241Z,3.00
2018-12-26T04:39:21.030Z,2.70
2018-12-26T04:41:51.719Z,2.83
2018-12-26T04:44:22.430Z,3.13
2018-12-26T04:46:53.041Z,3.53
2018-12-26T04:49:23.913Z,3.77
2018-12-26T04:51:54.766Z,3.87
2018-12-26T04:54:25.425Z,3.47
2018-12-26T04:56:56.069Z,3.93
2018-12-26T04:59:26.755Z,3.70
2018-12-26T05:01:57.472Z,4.30
2018-12-26T05:04:28.101Z,4.00
2018-12-26T05:06:58.767Z,4.30
2018-12-26T05:09:29.484Z,4.57
2018-12-26T05:12:00.197Z,4.37
2018-12-26T05:14:30.949Z,4.77
2018-12-26T05:17:01.634Z,5.47
2018-12-26T05:19:32.255Z,5.60
2018-12-26T05:22:03.078Z,5.27
2018-12-26T05:24:33.848Z,6.47
2018-12-26T05:27:04.520Z,5.67
2018-12-26T05:29:35.193Z,6.37
2018-12-26T05:32:05.861Z,6.30
2018-12-26T05:34:39.196Z,6.03
2018-12-26T05:37:14.485Z,7.47
2018-12-26T05:39:49.559Z,7.13
2018-12-26T05:42:20.303Z,8.30
2018-12-26T05:44:50.992Z,7.70
2018-12-26T05:47:21.659Z,7.80
2018-12-26T05:49:52.366Z,8.83
2018-12-26T05:52:23.086Z,8.37
2018-12-26T05:54:53.782Z,9.33
2018-12-26T05:57:24.479Z,8.27
2018-12-26T05:59:55.150Z,9.83
2018-12-26T06:02:25.822Z,9.77
2018-12-26T06:04:56.480Z,9.50
2018-12-26T06:07:27.106Z,10.00
2018-12-26T06:09:57.801Z,9.40
2018-12-26T06:12:28.446Z,9.70
2018-12-26T06:14:59.158Z,9.77
2018-12-26T06:17:29.884Z,9.80
2018-12-26T06:20:00.619Z,9.83
2018-12-26T06:22:31.313Z,10.43
2018-12-26T06:25:02.025Z,9.67
2018-12-26T06:27:32.715Z,10.07
2018-12-26T06:30:06.070Z,10.37
2018-12-26T06:32:36.802Z,10.30
2018-12-26T06:35:07.443Z,10.17
2018-12-26T06:37:38.282Z,9.10
2018-12-26T06:40:09.897Z,9.23
2018-12-26T06:42:42.368Z,10.17
2018-12-26T06:45:13.649Z,10.03
2018-12-26T06:47:44.336Z,8.57
2018-12-26T06:50:15.900Z,10.40
2018-12-26T06:52:46.565Z,10.77
2018-12-26T06:55:17.242Z,10.23
2018-12-26T06:57:47.895Z,11.33
2018-12-26T07:00:18.536Z,11.73
2018-12-26T07:02:49.293Z,11.40
2018-12-26T07:05:19.965Z,11.97
2018-12-26T07:07:50.624Z,11.17
2018-12-26T07:10:21.384Z,11.97
2018-12-26T07:12:52.058Z,12.93
2018-12-26T07:15:22.897Z,11.70
2018-12-26T07:17:53.828Z,12.83
2018-12-26T07:20:24.622Z,12.03
2018-12-26T07:22:55.464Z,12.93
2018-12-26T07:25:26.236Z,13.57
2018-12-26T07:27:56.992Z,14.30
2018-12-26T07:30:27.711Z,13.80
2018-12-26T07:32:58.329Z,13.73
2018-12-26T07:35:29.336Z,13.57
2018-12-26T07:38:00.120Z,14.83
2018-12-26T07:40:30.811Z,14.03
2018-12-26T07:43:01.599Z,14.43
2018-12-26T07:45:32.383Z,14.00
2018-12-26T07:48:03.109Z,14.73
2018-12-26T07:50:36.748Z,13.87
2018-12-26T07:53:07.397Z,14.20
2018-12-26T07:55:40.873Z,14.67
2018-12-26T07:58:17.552Z,14.87
2018-12-26T08:00:44.675Z,14.60
2018-12-26T08:03:15.959Z,13.97
2018-12-26T08:05:50.859Z,15.33
2018-12-26T08:08:22.225Z,14.27
2018-12-26T08:10:52.993Z,14.63
2018-12-26T08:13:23.777Z,15.33
2018-12-26T08:15:54.475Z,14.00
2018-12-26T08:18:25.216Z,14.23
2018-12-26T08:20:55.998Z,14.27
2018-12-26T08:23:26.680Z,13.87
2018-12-26T08:25:57.389Z,15.03
2018-12-26T08:28:28.122Z,14.53
2018-12-26T08:30:58.796Z,14.80
2018-12-26T08:33:29.454Z,14.27
2018-12-26T08:36:00.144Z,14.27
2018-12-26T08:38:30.835Z,14.37
2018-12-26T08:41:01.888Z,13.67
2018-12-26T08:43:32.494Z,14.30
2018-12-26T08:46:03.214Z,13.27
2018-12-26T08:48:33.943Z,13.23
2018-12-26T08:51:05.752Z,13.20
2018-12-26T08:53:36.504Z,12.03
2018-12-26T08:56:07.241Z,13.30
2018-12-26T08:58:38.195Z,12.77
2018-12-26T09:01:11.402Z,13.13
2018-12-26T09:03:43.955Z,12.30
2018-12-26T09:06:15.667Z,12.97
2018-12-26T09:08:49.251Z,14.27
2018-12-26T09:11:20.171Z,13.73
2018-12-26T09:13:54.414Z,11.53
2018-12-26T09:16:25.112Z,12.30
2018-12-26T09:18:55.991Z,10.90
2018-12-26T09:21:26.765Z,11.23
2018-12-26T09:23:57.430Z,12.87
2018-12-26T09:26:33.462Z,11.27
2018-12-26T09:29:04.114Z,11.40
2018-12-26T09:31:34.874Z,11.63
2018-12-26T09:34:05.841Z,11.00
2018-12-26T09:36:36.589Z,12.10
2018-12-26T09:39:10.536Z,11.67
2018-12-26T09:41:41.239Z,13.33
2018-12-26T09:44:11.969Z,12.63
2018-12-26T09:46:42.644Z,11.77
2018-12-26T09:49:13.566Z,11.70
2018-12-26T09:51:44.553Z,12.10
2018-12-26T09:54:15.418Z,12.67
2018-12-26T09:56:46.104Z,13.50
2018-12-26T09:59:16.968Z,14.10
2018-12-26T10:01:47.695Z,13.23
2018-12-26T10:04:21.628Z,14.37
2018-12-26T10:06:52.375Z,14.13
2018-12-26T10:09:23.218Z,15.20
2018-12-26T10:11:54.047Z,15.97
2018-12-26T10:14:25.778Z,13.93
2018-12-26T10:16:56.707Z,15.50
2018-12-26T10:19:28.534Z,14.93
2018-12-26T10:21:59.687Z,14.17
2018-12-26T10:24:33.731Z,14.93
2018-12-26T10:27:05.825Z,14.53
2018-12-26T10:29:36.886Z,17.70
2018-12-26T10:32:07.790Z,25.73
2018-12-26T10:34:38.544Z,24.60
2018-12-26T10:37:09.775Z,15.27
2018-12-26T10:39:42.007Z,15.00
2018-12-26T10:42:12.796Z,13.20
2018-12-26T10:44:43.389Z,14.80
2018-12-26T10:47:14.244Z,14.13
2018-12-26T10:49:45.080Z,13.93
2018-12-26T10:52:22.890Z,13.73
2018-12-26T10:54:53.635Z,15.27
2018-12-26T10:57:25.352Z,14.70
2018-12-26T10:59:57.701Z,15.00
2018-12-26T11:02:28.522Z,13.60
2018-12-26T11:04:59.244Z,15.37
2018-12-26T11:07:29.948Z,13.70
2018-12-26T11:10:00.645Z,13.70
2018-12-26T11:12:31.502Z,13.77
2018-12-26T11:15:02.234Z,13.80
2018-12-26T11:17:33.290Z,13.57
2018-12-26T11:20:05.973Z,13.27
2018-12-26T11:22:36.755Z,11.73
2018-12-26T11:25:08.936Z,12.13
2018-12-26T11:27:40.339Z,12.37
2018-12-26T11:30:12.163Z,12.23
2018-12-26T11:32:43.581Z,11.70
2018-12-26T11:35:17.430Z,12.13
2018-12-26T11:37:48.637Z,11.60
2018-12-26T11:40:19.379Z,11.63
2018-12-26T11:42:50.158Z,10.70
2018-12-26T11:45:21.611Z,10.70
2018-12-26T11:47:53.527Z,9.03
2018-12-26T11:50:25.418Z,11.47
2018-12-26T11:52:56.337Z,9.90
2018-12-26T11:55:27.477Z,10.63
2018-12-26T11:57:58.369Z,10.30
2018-12-26T12:00:29.117Z,9.47
2018-12-26T12:02:59.797Z,9.47
2018-12-26T12:05:31.434Z,9.33
2018-12-26T12:08:02.196Z,8.13
2018-12-26T12:10:33.423Z,9.33
2018-12-26T12:13:04.193Z,8.47
2018-12-26T12:15:34.861Z,8.60
2018-12-26T12:18:05.698Z,8.50
2018-12-26T12:20:36.355Z,8.07
2018-12-26T12:23:07.124Z,8.80
2018-12-26T12:25:37.836Z,8.93
2018-12-26T12:28:09.565Z,8.30
2018-12-26T12:30:41.988Z,7.63
2018-12-26T12:33:12.742Z,7.63
2018-12-26T12:35:43.453Z,6.97
2018-12-26T12:38:14.272Z,7.10
2018-12-26T12:40:44.939Z,7.17
2018-12-26T12:43:15.584Z,7.03
2018-12-26T12:45:46.293Z,6.17
2018-12-26T12:48:17.195Z,5.50
2018-12-26T12:50:48.072Z,5.80
2018-12-26T12:53:18.749Z,6.40
2018-12-26T12:55:49.737Z,5.63
2018-12-26T12:58:20.459Z,5.67
2018-12-26T13:00:51.276Z,5.97
2018-12-26T13:03:21.991Z,4.97
2018-12-26T13:05:52.737Z,5.83
2018-12-26T13:08:23.466Z,5.17
2018-12-26T13:10:54.309Z,4.80
2018-12-26T13:13:26.016Z,4.53
2018-12-26T13:16:01.099Z,5.23
2018-12-26T13:18:32.302Z,4.87
2018-12-26T13:21:03.095Z,5.20
2018-12-26T13:23:33.935Z,6.50
2018-12-26T13:26:04.640Z,5.57
2018-12-26T13:28:35.678Z,5.50
2018-12-26T13:31:06.996Z,6.20
2018-12-26T13:33:39.251Z,5.70
2018-12-26T13:36:11.001Z,5.40
2018-12-26T13:38:41.800Z,5.53
2018-12-26T13:41:12.792Z,5.13
2018-12-26T13:43:43.490Z,5.13
2018-12-26T13:46:15.328Z,5.17
2018-12-26T13:48:46.347Z,5.33
2018-12-26T13:51:19.030Z,5.13
2018-12-26T13:53:49.912Z,4.73
2018-12-26T13:56:20.703Z,8.33
2018-12-26T13:58:51.649Z,8.07
2018-12-26T14:01:23.026Z,12.27
2018-12-26T14:03:53.809Z,5.70
2018-12-26T14:06:24.467Z,5.23
2018-12-26T14:08:55.235Z,4.67
2018-12-26T14:11:27.641Z,5.00
2018-12-26T14:13:58.481Z,5.50
2018-12-26T14:16:29.112Z,5.33
2018-12-26T14:19:00.117Z,6.07
2018-12-26T14:21:31.415Z,5.57
2018-12-26T14:24:03.691Z,5.13
2018-12-26T14:26:36.391Z,5.40
2018-12-26T14:29:07.463Z,4.90
2018-12-26T14:31:38.124Z,5.17
2018-12-26T14:34:09.395Z,5.27
2018-12-26T14:36:40.831Z,5.63
2018-12-26T14:39:11.871Z,6.33
2018-12-26T14:41:42.575Z,5.37
2018-12-26T14:44:13.262Z,5.57
2018-12-26T14:46:44.583Z,5.60
2018-12-26T14:49:15.319Z,5.10
2018-12-26T14:51:46.606Z,5.30
2018-12-26T14:54:18.913Z,5.67
2018-12-26T14:56:49.819Z,5.90
2018-12-26T14:59:21.743Z,5.80
2018-12-26T15:01:54.325Z,6.50
2018-12-26T15:04:25.019Z,6.70
2018-12-26T15:06:55.712Z,6.60
2018-12-26T15:09:26.404Z,6.03
2018-12-26T15:11:57.111Z,5.93
2018-12-26T15:14:27.840Z,6.73
2018-12-26T15:16:59.093Z,6.43
2018-12-26T15:19:31.558Z,6.00
2018-12-26T15:22:02.593Z,6.00
2018-12-26T15:24:33.307Z,7.00
2018-12-26T15:27:04.073Z,7.07
2018-12-26T15:29:34.816Z,7.60
2018-12-26T15:32:05.575Z,9.23
2018-12-26T15:34:36.328Z,10.83
2018-12-26T15:37:07.341Z,8.60
2018-12-26T15:39:38.573Z,7.30
2018-12-26T15:42:09.491Z,7.73
2018-12-26T15:44:40.611Z,8.07
2018-12-26T15:47:12.398Z,7.90
2018-12-26T15:49:43.982Z,11.27
2018-12-26T15:52:14.969Z,22.83
2018-12-26T15:54:46.151Z,12.13
2018-12-26T15:57:16.968Z,8.57
2018-12-26T15:59:47.892Z,9.17
2018-12-26T16:02:18.776Z,15.98
2018-12-26T16:04:49.511Z,13.77
2018-12-26T16:07:20.418Z,14.23
2018-12-26T16:09:51.215Z,29.90
2018-12-26T16:12:21.948Z,23.30
2018-12-26T16:14:52.777Z,18.60
2018-12-26T16:17:23.462Z,9.73
2018-12-26T16:19:54.221Z,17.53
2018-12-26T16:22:25.441Z,18.83
2018-12-26T16:24:56.440Z,17.27
2018-12-26T16:27:27.263Z,13.10
2018-12-26T16:29:58.014Z,18.00
2018-12-26T16:32:29.325Z,17.03
2018-12-26T16:35:00.288Z,12.77
2018-12-26T16:37:33.877Z,15.93
2018-12-26T16:40:04.790Z,16.00
2018-12-26T16:42:35.663Z,21.57
2018-12-26T16:45:06.792Z,18.87
2018-12-26T16:47:37.512Z,12.63
2018-12-26T16:50:09.752Z,12.03
2018-12-26T16:52:40.676Z,14.30
2018-12-26T16:55:12.458Z,11.27
2018-12-26T16:57:43.934Z,12.37
2018-12-26T17:00:15.134Z,10.33
2018-12-26T17:02:46.337Z,10.03
2018-12-26T17:05:17.109Z,10.60
2018-12-26T17:07:48.380Z,11.53
2018-12-26T17:10:23.126Z,11.23
2018-12-26T17:12:53.992Z,12.43
2018-12-26T17:15:24.693Z,13.50
2018-12-26T17:17:55.518Z,12.50
2018-12-26T17:20:26.246Z,11.20
2018-12-26T17:22:57.018Z,11.80
2018-12-26T17:25:27.745Z,13.20
2018-12-26T17:27:58.420Z,12.63
2018-12-26T17:30:29.419Z,12.20
2018-12-26T17:33:01.051Z,12.30
2018-12-26T17:35:32.309Z,11.90
2018-12-26T17:38:03.188Z,12.17
2018-12-26T17:40:33.939Z,12.57
2018-12-26T17:43:04.800Z,11.53
2018-12-26T17:45:35.692Z,15.88
2018-12-26T17:48:06.538Z,12.37
2018-12-26T17:50:52.310Z,11.40
2018-12-26T17:54:09.625Z,12.10
2018-12-26T17:57:06.769Z,11.17
2018-12-26T18:00:42.067Z,10.20
2018-12-26T18:03:14.536Z,11.03
2018-12-26T18:05:46.563Z,10.80
2018-12-26T18:08:17.372Z,10.70
2018-12-26T18:10:48.909Z,9.57
2018-12-26T18:13:19.686Z,11.63
2018-12-26T18:15:50.894Z,10.33
2018-12-26T18:18:21.694Z,10.17
2018-12-26T18:20:52.653Z,13.27
2018-12-26T18:23:23.681Z,10.67
2018-12-26T18:25:54.520Z,10.17
2018-12-26T18:28:25.481Z,9.97
2018-12-26T18:30:56.321Z,10.43
2018-12-26T18:33:27.109Z,9.53
2018-12-26T18:35:57.877Z,9.90
2018-12-26T18:38:28.669Z,10.37
2018-12-26T18:40:59.526Z,9.83
2018-12-26T18:43:30.346Z,9.53
2018-12-26T18:46:01.180Z,10.90
2018-12-26T18:48:32.117Z,10.57
2018-12-26T18:51:03.201Z,10.67
2018-12-26T18:53:34.149Z,10.13
2018-12-26T18:56:04.915Z,10.67
2018-12-26T18:58:35.717Z,10.67
2018-12-26T19:01:16.284Z,10.27
2018-12-26T19:03:47.218Z,10.50
2018-12-26T19:06:17.971Z,9.23
2018-12-26T19:08:48.713Z,10.47
2018-12-26T19:11:19.776Z,10.70
2018-12-26T19:13:51.198Z,11.10
2018-12-26T19:16:21.933Z,11.00
2018-12-26T19:18:53.275Z,11.07
2018-12-26T19:21:24.100Z,11.07
2018-12-26T19:23:57.754Z,10.47
2018-12-26T19:26:28.620Z,10.07
2018-12-26T19:28:59.397Z,11.13
2018-12-26T19:31:39.250Z,18.60
2018-12-26T19:34:04.485Z,53.73
2018-12-26T19:36:37.462Z,32.07
2018-12-26T19:39:12.761Z,16.87
2018-12-26T19:41:44.003Z,17.90
2018-12-26T19:44:16.478Z,24.57
2018-12-26T19:46:47.667Z,16.40
2018-12-26T19:49:21.847Z,11.40
2018-12-26T19:51:53.029Z,12.63
2018-12-26T19:54:25.372Z,15.13
2018-12-26T19:56:56.996Z,9.20
2018-12-26T19:59:29.676Z,11.20
2018-12-26T20:02:00.541Z,11.33
2018-12-26T20:04:31.403Z,10.87
2018-12-26T20:07:03.488Z,9.33
2018-12-26T20:09:45.719Z,9.57
2018-12-26T20:12:32.500Z,11.90
2018-12-26T20:15:15.117Z,11.73
2018-12-26T20:17:49.887Z,11.77
2018-12-26T20:20:21.022Z,10.20
2018-12-26T20:22:51.873Z,16.13
2018-12-26T20:25:23.352Z,12.50
2018-12-26T20:27:55.298Z,12.47
2018-12-26T20:30:26.615Z,10.20
2018-12-26T20:33:01.385Z,10.63
2018-12-26T20:35:32.683Z,10.27
2018-12-26T20:38:03.627Z,11.30
2018-12-26T20:40:34.663Z,11.57
2018-12-26T20:43:05.814Z,14.87
2018-12-26T20:45:36.523Z,12.30
2018-12-26T20:48:07.217Z,13.13
2018-12-26T20:50:37.896Z,12.23
2018-12-26T20:53:08.715Z,11.77
2018-12-26T20:55:39.552Z,12.07
2018-12-26T20:58:10.915Z,12.23
2018-12-26T21:00:43.323Z,11.60
2018-12-26T21:03:14.038Z,11.13
2018-12-26T21:05:45.141Z,11.07
2018-12-26T21:08:16.013Z,12.50
2018-12-26T21:10:47.052Z,11.83
2018-12-26T21:13:18.258Z,12.17
2018-12-26T21:15:48.460Z,10.93
2018-12-26T21:18:18.564Z,12.43
2018-12-26T21:20:49.636Z,11.97
2018-12-26T21:23:19.993Z,13.33
2018-12-26T21:25:50.261Z,13.27
2018-12-26T21:28:20.458Z,12.07
2018-12-26T21:30:50.717Z,12.93
2018-12-26T21:33:21.086Z,13.67
2018-12-26T21:35:51.454Z,14.67
2018-12-26T21:38:21.630Z,14.03
2018-12-26T21:40:51.842Z,14.67
2018-12-26T21:43:21.991Z,15.03
2018-12-26T21:45:52.070Z,15.00
2018-12-26T21:48:22.307Z,14.50
2018-12-26T21:50:52.433Z,15.63
2018-12-26T21:53:22.569Z,16.80
2018-12-26T21:55:53.744Z,16.33
2018-12-26T21:58:24.000Z,17.23
2018-12-26T22:00:54.184Z,17.70
2018-12-26T22:03:24.511Z,16.17
2018-12-26T22:05:54.679Z,16.13
2018-12-26T22:08:24.878Z,17.37
2018-12-26T22:10:54.918Z,17.13
2018-12-26T22:13:25.053Z,17.57
2018-12-26T22:15:55.330Z,18.10
2018-12-26T22:18:25.396Z,17.60
2018-12-26T22:20:55.516Z,18.33
2018-12-26T22:23:25.708Z,17.50
2018-12-26T22:25:55.716Z,20.13
2018-12-26T22:28:25.797Z,21.97
2018-12-26T22:30:55.972Z,22.43
2018-12-26T22:33:26.117Z,22.43
2018-12-26T22:35:56.249Z,22.87
2018-12-26T22:38:26.324Z,22.40
2018-12-26T22:40:56.430Z,25.37
2018-12-26T22:43:26.490Z,24.57
2018-12-26T22:45:57.206Z,25.73
2018-12-26T22:48:28.324Z,25.13
2018-12-26T22:50:59.214Z,26.03
2018-12-26T22:53:30.272Z,26.93
2018-12-26T22:56:01.287Z,27.03
2018-12-26T22:58:32.077Z,23.80
2018-12-26T23:01:03.382Z,24.67
2018-12-26T23:03:38.915Z,25.60
2018-12-26T23:06:13.808Z,25.80
2018-12-26T23:08:50.181Z,26.83
2018-12-26T23:11:27.667Z,25.93
2018-12-26T23:14:04.264Z,26.50
2018-12-26T23:16:45.392Z,26.07
2018-12-26T23:19:17.980Z,27.53
2018-12-26T23:21:48.419Z,28.03
2018-12-26T23:24:18.631Z,27.60
2018-12-26T23:26:48.866Z,27.77
2018-12-26T23:29:20.196Z,28.90
2018-12-26T23:31:50.665Z,28.20
2018-12-26T23:34:21.053Z,28.17
2018-12-26T23:36:51.305Z,26.83
2018-12-26T23:39:21.422Z,26.27
2018-12-26T23:41:51.596Z,28.07
2018-12-26T23:44:21.693Z,28.10
2018-12-26T23:46:51.756Z,29.67
2018-12-26T23:49:22.273Z,31.57
2018-12-26T23:51:52.520Z,31.73
2018-12-26T23:54:22.624Z,29.03
2018-12-26T23:56:52.747Z,28.57
2018-12-26T23:59:22.800Z,29.63
